Hauptseite
METAR-TAF:

METAR-TAF

Flughäfen :

Flughafen Frankfurt-Hahn

Hahn, Deutschland

Breite: 49-57N, Länge: 007-16E, Höhe: 491 m

Beobachtung

Neuester Wetterbericht von vor 17 Minuten, um 11:20 UTC
Wind 10 kt aus Südwest, variierte zwischen Süd und West/Nordwest
Temperatur 25°C
Luftfeuchtigkeit 50%
Luftdruck 1020 hPa
Sichtweite 10 km oder mehr
Leicht bewölkt in der Höhe von 4300 ft

METAR: EDFH 191120Z 22010KT 190V290 9999 FEW043 25/14 Q1020

Zeit: 13:37 (11:37 UTC)

Prognose

Neuester Wetterbericht von vor 6 Stunden und 37 Minuten, um 05:00 UTC
Gültige Prognose vom 19 um 06 UTC bis 20 um 06 UTC
Wind 8 kt aus West/Südwest
Sichtweite 10 km oder mehr
keine Wolken unter 1500 m und keine Kumulonimbus oder Gewitterwolken
Zeitweise
vom 19 um 17 UTC bis 20 um 06 UTC
Wind 3 kt aus unterschiedlichen Richtungen

TAF: EDFH 190500Z 1906/2006 24008KT CAVOK TEMPO 1917/2006 VRB03KT

Wetterbeobachtungen und Prognosen von mehr als 4000 Flughäfen (METAR und TAF Bericht).

Die verfügbaren Stationen werden durch gelbe und rote Markierungen auf der Karte dargestellt.

Führen Sie die Maus auf sie, um den Namen der Station zu sehen.

Darauf klicken, um die Beobachtung von Wetterbeobachtungen und Prognosen zu sehen.

Um die Karte zu ändern : klicken Sie auf den grünen Tasten mit einem schwarzen Kreuz Zum Vergrößern, auf den grünen Button mit einem Gedankenstrich zu verkleinern, oder auf die grünen Pfeile für benachbarte Karten.


METAR-TAF: